Baku FIR

The Baku Flight Information Region (UBBA) provides the organization of air traffic in the airspace of Azerbaijan in the VATSIM network.

Baku Control (UBBA_CTR) sectors

United 125.500

Management

Grigori Badalov*

Curator

Gregory Adamov

Event manager
FIR Instructors
Grigori Badalov (Instructor)
Part of
Caucasus

FIR air traffic controllers

Name Rating Units *
Anatoly Zhilkin Controller UBBA_CTR
Grigori Badalov Instructor UBBA_CTR
Ivan Chernov Senior Controller UBBA_CTR
Valeriy Polostyanoy Instructor UBBA_CTR

FIR airports

ICAO City Title Weather
UBBB Baku Heydar Aliyev International Airport UBBB 020500Z 11008KT 9999 SCT048 06/03 Q1026 NOSIG
UBBQ Gabala Gabala International Airport UBBQ 020500Z 02003KT 9999 OVC041 03/00 Q1025 NOSIG RMK MT OBSC
UBBG Ganja Ganja Airport UBBG 020500Z 00000KT 9999 BKN040 03/M02 Q1024 NOSIG
UBBN Nakhchivan Nakhchivan Airport UBBN 020500Z 08006KT 9999 FEW046 BKN100 00/M05 Q1020 NOSIG RMK QFE690
UBBL Lankaran Lankaran International Airport UBBL 020500Z 00000KT 9999 SCT060 05/02 Q1027 NOSIG